Time;durP1;ratioP1;P1;durP2;ratioP2;P2;SDS_P1;SDS_P2;PMS_P1;PMS_P2;Temp;Humidity;BMP_temperature;BMP_pressure;BME280_temperature;BME280_humidity;BME280_pressure;Samples;Min_cycle;Max_cycle;Signal;HPM_P1;HPM_P2
2021/05/08 00:02:19;;;;;;;6.03;4.97;;;2.50;99.90;;;;;;5053503;28;20414;-81
2021/05/08 00:04:46;;;;;;;5.85;4.45;;;2.50;99.90;;;;;;5063414;28;20394;-81
2021/05/08 00:07:12;;;;;;;7.18;5.32;;;2.40;99.90;;;;;;5053750;28;20033;-80
2021/05/08 00:09:38;;;;;;;7.50;5.38;;;2.40;99.90;;;;;;5053649;28;20450;-77
2021/05/08 00:12:04;;;;;;;6.43;5.20;;;2.40;99.90;;;;;;5053482;28;20033;-80
2021/05/08 00:14:31;;;;;;;7.00;4.95;;;2.40;99.90;;;;;;5053813;28;20025;-81
2021/05/08 00:16:57;;;;;;;7.03;4.93;;;2.20;99.90;;;;;;5053146;28;20052;-82
2021/05/08 00:19:23;;;;;;;7.38;5.00;;;2.10;99.90;;;;;;5053022;28;20047;-81
2021/05/08 00:21:53;;;;;;;6.75;4.57;;;2.10;99.90;;;;;;5052410;28;20053;-80
2021/05/08 00:24:19;;;;;;;31.58;20.90;;;2.10;99.90;;;;;;5058942;28;20047;-82
2021/05/08 00:26:46;;;;;;;10.60;7.05;;;2.10;99.90;;;;;;5066553;28;20033;-81
2021/05/08 00:29:12;;;;;;;9.10;7.07;;;2.10;99.90;;;;;;5061106;28;20402;-81
2021/05/08 00:31:38;;;;;;;8.90;6.47;;;2.00;99.90;;;;;;5065466;28;20092;-78
2021/05/08 00:34:06;;;;;;;8.40;6.38;;;2.00;99.90;;;;;;5067580;28;20041;-80
2021/05/08 00:36:36;;;;;;;8.68;5.70;;;2.00;99.90;;;;;;5051654;28;20048;-81
2021/05/08 00:39:04;;;;;;;8.48;6.43;;;2.00;99.90;;;;;;5050895;28;20052;-81
2021/05/08 00:41:31;;;;;;;10.50;5.72;;;1.90;99.90;;;;;;5053207;28;20057;-81
2021/05/08 00:43:58;;;;;;;7.95;5.82;;;1.80;99.90;;;;;;5050219;28;20052;-80
2021/05/08 00:46:26;;;;;;;8.60;6.43;;;1.80;99.90;;;;;;5055064;28;20041;-80
2021/05/08 00:48:55;;;;;;;8.45;6.28;;;1.90;99.90;;;;;;5070334;28;20049;-80
2021/05/08 00:51:22;;;;;;;8.45;6.13;;;2.00;99.90;;;;;;5066909;28;20052;-80
2021/05/08 00:53:49;;;;;;;8.52;6.20;;;2.00;99.90;;;;;;5051235;28;20041;-80
2021/05/08 00:56:16;;;;;;;6.80;5.90;;;2.00;99.90;;;;;;5064463;28;20045;-80
2021/05/08 00:58:43;;;;;;;7.10;5.75;;;2.00;99.90;;;;;;5052110;28;20032;-78
2021/05/08 01:01:09;;;;;;;6.55;5.40;;;2.20;99.90;;;;;;5053133;28;20497;-81
2021/05/08 01:03:35;;;;;;;6.70;5.93;;;2.10;99.90;;;;;;5058893;28;20040;-82
2021/05/08 01:06:02;;;;;;;7.03;5.32;;;1.90;99.90;;;;;;5069343;28;20043;-82
2021/05/08 01:08:30;;;;;;;10.00;6.20;;;1.90;99.90;;;;;;5056473;28;20052;-82
2021/05/08 01:10:56;;;;;;;7.65;6.20;;;1.90;99.90;;;;;;5058202;28;20031;-82
2021/05/08 01:13:25;;;;;;;8.35;5.78;;;2.10;99.90;;;;;;5065849;28;20393;-82
2021/05/08 01:15:52;;;;;;;7.30;5.80;;;2.00;99.90;;;;;;5050639;28;20127;-82
2021/05/08 01:18:19;;;;;;;7.45;5.60;;;2.00;99.90;;;;;;5052510;28;20033;-82
2021/05/08 01:20:46;;;;;;;7.40;5.82;;;2.00;99.90;;;;;;5050489;28;20041;-80
2021/05/08 01:23:12;;;;;;;6.90;5.43;;;1.80;99.90;;;;;;5055256;28;20048;-81
2021/05/08 01:25:39;;;;;;;9.48;5.50;;;1.60;99.90;;;;;;5059988;28;20045;-78
2021/05/08 01:28:05;;;;;;;6.97;5.40;;;1.50;99.90;;;;;;5064868;28;20036;-81
2021/05/08 01:30:39;;;;;;;7.80;6.00;;;1.40;99.90;;;;;;5056014;28;20112;-79
2021/05/08 01:33:12;;;;;;;7.07;5.72;;;1.40;99.90;;;;;;5052470;28;20053;-82
2021/05/08 01:35:38;;;;;;;9.43;6.10;;;1.40;99.90;;;;;;5051395;28;20040;-80
2021/05/08 01:38:04;;;;;;;8.45;6.53;;;1.40;99.90;;;;;;5051986;28;20462;-82
2021/05/08 01:40:35;;;;;;;8.70;6.22;;;1.40;99.90;;;;;;5050413;28;20048;-82
2021/05/08 01:43:02;;;;;;;9.68;6.18;;;1.30;99.90;;;;;;5051651;28;20364;-81
2021/05/08 01:45:30;;;;;;;7.63;5.93;;;1.30;99.90;;;;;;5069817;28;20060;-79
2021/05/08 01:48:03;;;;;;;8.25;6.63;;;1.30;99.90;;;;;;5050906;28;20048;-81
2021/05/08 01:50:31;;;;;;;10.18;6.93;;;1.40;99.90;;;;;;5064268;28;20398;-81
2021/05/08 01:52:57;;;;;;;9.00;6.85;;;1.40;99.90;;;;;;5051647;28;20029;-81
2021/05/08 01:55:26;;;;;;;10.35;7.43;;;1.40;99.90;;;;;;5069817;28;20119;-82
2021/05/08 01:57:55;;;;;;;10.20;6.93;;;1.40;99.90;;;;;;5074021;28;20047;-80
2021/05/08 02:00:35;;;;;;;9.65;7.43;;;1.40;99.90;;;;;;5086535;28;20045;-82
2021/05/08 02:03:04;;;;;;;8.40;6.57;;;1.50;99.90;;;;;;5058027;28;20060;-81
2021/05/08 02:05:37;;;;;;;10.13;7.00;;;1.30;99.90;;;;;;5058948;28;20041;-82
2021/05/08 02:08:12;;;;;;;8.70;6.45;;;1.30;99.90;;;;;;5051897;28;20385;-80
2021/05/08 02:10:40;;;;;;;9.02;6.90;;;1.20;99.90;;;;;;5067034;28;20041;-80
2021/05/08 02:13:08;;;;;;;8.68;6.13;;;1.20;99.90;;;;;;5051072;28;20053;-81
2021/05/08 02:15:35;;;;;;;9.00;6.97;;;1.10;99.90;;;;;;5051648;28;20029;-80
2021/05/08 02:18:05;;;;;;;9.50;6.78;;;1.20;99.90;;;;;;5067027;28;20048;-80
2021/05/08 02:20:37;;;;;;;9.30;7.38;;;1.20;99.90;;;;;;5052318;28;20044;-80
2021/05/08 02:23:06;;;;;;;9.25;6.40;;;1.30;99.90;;;;;;5051456;28;20049;-80
2021/05/08 02:25:33;;;;;;;9.57;7.50;;;1.30;99.90;;;;;;5054077;28;20040;-80
2021/05/08 02:28:00;;;;;;;8.60;7.50;;;1.30;99.90;;;;;;5054634;28;20044;-81
2021/05/08 02:30:30;;;;;;;9.35;6.88;;;1.30;99.90;;;;;;5057531;28;20041;-81
2021/05/08 02:32:57;;;;;;;8.52;6.55;;;1.20;99.90;;;;;;5055163;28;20045;-80
2021/05/08 02:35:25;;;;;;;10.25;6.97;;;1.20;99.90;;;;;;5064255;28;20052;-81
2021/05/08 02:37:53;;;;;;;10.13;7.03;;;1.30;99.90;;;;;;5054851;28;20044;-81
2021/05/08 02:40:23;;;;;;;9.10;7.18;;;1.30;99.90;;;;;;5066420;28;20063;-80
2021/05/08 02:42:50;;;;;;;11.65;7.43;;;1.30;99.90;;;;;;5054668;28;20059;-81
2021/05/08 02:45:17;;;;;;;10.80;7.45;;;1.30;99.90;;;;;;5053452;28;20665;-80
2021/05/08 02:47:45;;;;;;;13.15;7.22;;;1.30;99.90;;;;;;5054645;28;20048;-80
2021/05/08 02:50:14;;;;;;;12.52;6.72;;;1.20;99.90;;;;;;5055318;28;20047;-81
2021/05/08 02:52:41;;;;;;;10.95;7.85;;;1.20;99.90;;;;;;5055175;28;20045;-79
2021/05/08 02:55:08;;;;;;;8.68;6.25;;;1.20;99.90;;;;;;5053663;28;20504;-81
2021/05/08 02:57:35;;;;;;;10.13;7.30;;;1.20;99.90;;;;;;5055061;28;20053;-81
2021/05/08 03:00:05;;;;;;;10.45;7.40;;;1.20;99.90;;;;;;5072799;28;20043;-81
2021/05/08 03:02:32;;;;;;;7.35;5.13;;;1.10;99.90;;;;;;5067570;28;20049;-81
2021/05/08 03:04:59;;;;;;;8.98;6.45;;;1.10;99.90;;;;;;5055549;28;20029;-81
2021/05/08 03:07:26;;;;;;;9.23;6.35;;;1.10;99.90;;;;;;5054782;28;20485;-80
2021/05/08 03:09:52;;;;;;;9.43;6.95;;;1.10;99.90;;;;;;5054014;28;20041;-80
2021/05/08 03:12:19;;;;;;;8.35;6.38;;;1.10;99.90;;;;;;5068789;28;20049;-80
2021/05/08 03:14:45;;;;;;;7.63;6.22;;;1.10;99.90;;;;;;5055512;28;20041;-80
2021/05/08 03:17:11;;;;;;;8.93;7.35;;;1.10;99.90;;;;;;5069699;28;20481;-81
2021/05/08 03:19:44;;;;;;;10.40;7.05;;;1.10;99.90;;;;;;5057457;28;20701;-81
2021/05/08 03:22:10;;;;;;;9.77;7.35;;;1.00;99.90;;;;;;5068467;28;20045;-80
2021/05/08 03:24:37;;;;;;;10.90;7.47;;;1.00;99.90;;;;;;5063649;28;20052;-81
2021/05/08 03:27:04;;;;;;;10.23;6.90;;;0.90;99.90;;;;;;5058446;28;20040;-80
2021/05/08 03:29:31;;;;;;;10.82;7.32;;;0.80;99.90;;;;;;5049097;28;20033;-81
2021/05/08 03:31:58;;;;;;;9.88;6.88;;;0.80;99.90;;;;;;5054265;28;20398;-80
2021/05/08 03:34:25;;;;;;;8.93;6.68;;;0.80;99.90;;;;;;5054338;28;20043;-81
2021/05/08 03:36:52;;;;;;;10.88;7.88;;;0.80;99.90;;;;;;5068316;28;20481;-81
2021/05/08 03:39:18;;;;;;;11.25;7.57;;;0.80;99.90;;;;;;5058120;28;20041;-81
2021/05/08 03:41:44;;;;;;;14.88;8.23;;;0.60;99.90;;;;;;5056836;28;20044;-81
2021/05/08 03:44:11;;;;;;;9.52;6.80;;;0.40;99.90;;;;;;5069851;28;20028;-82
2021/05/08 03:46:37;;;;;;;10.00;7.38;;;0.40;99.90;;;;;;5054626;28;20033;-81
2021/05/08 03:49:04;;;;;;;11.20;7.18;;;0.40;99.90;;;;;;5054126;28;20047;-81
2021/05/08 03:51:30;;;;;;;11.77;7.55;;;0.40;99.90;;;;;;5068632;28;20040;-80
2021/05/08 03:53:58;;;;;;;10.40;7.35;;;0.30;99.90;;;;;;5073774;28;20040;-81
2021/05/08 03:56:24;;;;;;;9.95;6.75;;;0.30;99.90;;;;;;5054214;28;20028;-82
2021/05/08 03:58:51;;;;;;;8.93;7.35;;;0.30;99.90;;;;;;5053376;28;20044;-81
2021/05/08 04:01:17;;;;;;;10.68;6.55;;;0.30;99.90;;;;;;5053965;28;20033;-82
2021/05/08 04:03:43;;;;;;;10.43;7.75;;;0.30;99.90;;;;;;5053568;28;20040;-81
2021/05/08 04:06:09;;;;;;;9.23;6.90;;;0.40;99.90;;;;;;5067402;28;20033;-81
2021/05/08 04:08:36;;;;;;;9.30;5.97;;;0.40;99.90;;;;;;5054015;28;20295;-82
2021/05/08 04:11:03;;;;;;;8.38;6.10;;;0.50;99.90;;;;;;5053171;28;20044;-81
2021/05/08 04:13:29;;;;;;;9.18;6.03;;;0.60;99.90;;;;;;5060476;28;20043;-81
2021/05/08 04:15:55;;;;;;;6.88;5.20;;;0.60;99.90;;;;;;5065673;28;20083;-80
2021/05/08 04:18:21;;;;;;;7.80;5.38;;;0.70;99.90;;;;;;5057111;28;20044;-80
2021/05/08 04:20:47;;;;;;;8.95;5.93;;;0.80;99.90;;;;;;5053054;28;20029;-80
2021/05/08 04:23:14;;;;;;;6.50;5.35;;;0.90;99.90;;;;;;5067850;28;20032;-80
2021/05/08 04:25:40;;;;;;;7.20;5.55;;;1.10;99.90;;;;;;5053846;28;20036;-78
2021/05/08 04:28:11;;;;;;;8.10;5.50;;;1.10;99.90;;;;;;5056482;28;20381;-81
2021/05/08 04:30:37;;;;;;;7.80;5.88;;;1.20;99.90;;;;;;5069759;28;20029;-80
2021/05/08 04:33:04;;;;;;;8.75;6.47;;;1.30;99.90;;;;;;5052702;28;20466;-80
2021/05/08 04:35:31;;;;;;;8.80;6.38;;;1.40;99.90;;;;;;5053320;28;20367;-80
2021/05/08 04:38:01;;;;;;;8.75;5.97;;;1.50;99.90;;;;;;5052536;28;20055;-80
2021/05/08 04:40:28;;;;;;;7.28;5.68;;;1.70;99.90;;;;;;5069468;28;20043;-80
2021/05/08 04:42:54;;;;;;;6.20;4.93;;;2.30;99.90;;;;;;5068790;28;20052;-81
2021/05/08 04:45:24;;;;;;;5.53;4.97;;;3.20;99.90;;;;;;5069732;28;20032;-81
2021/05/08 04:47:55;;;;;;;6.22;4.85;;;3.90;99.90;;;;;;5069750;28;20023;-81
2021/05/08 04:50:22;;;;;;;;;;;4.50;99.90;;;;;;5071678;28;20029;-82
2021/05/08 04:52:49;;;;;;;8.00;4.03;;;5.60;97.30;;;;;;5061724;28;19908;-81
2021/05/08 04:55:15;;;;;;;4.32;3.55;;;6.30;91.70;;;;;;5052900;28;20033;-82
2021/05/08 04:57:42;;;;;;;4.35;3.88;;;6.40;90.50;;;;;;5052603;28;20029;-79
2021/05/08 05:00:11;;;;;;;4.57;3.90;;;6.90;88.10;;;;;;5052949;28;20029;-82
2021/05/08 05:02:40;;;;;;;5.80;3.35;;;7.40;83.80;;;;;;5052666;28;20037;-82
2021/05/08 05:05:08;;;;;;;4.60;3.53;;;7.70;80.80;;;;;;5052518;28;20377;-81
2021/05/08 05:07:34;;;;;;;4.18;3.58;;;8.30;76.80;;;;;;5066999;28;20040;-81
2021/05/08 05:10:00;;;;;;;4.05;3.65;;;8.10;76.30;;;;;;5064038;28;20118;-82
2021/05/08 05:12:26;;;;;;;4.50;3.30;;;8.00;75.90;;;;;;5052307;28;20044;-82
2021/05/08 05:14:52;;;;;;;6.07;3.60;;;8.40;75.40;;;;;;5071657;28;20029;-82
2021/05/08 05:17:19;;;;;;;5.32;4.47;;;8.40;74.20;;;;;;5053167;28;20450;-83
2021/05/08 05:19:45;;;;;;;11.60;4.13;;;8.00;75.40;;;;;;5065900;28;20383;-81
2021/05/08 05:22:11;;;;;;;6.30;3.72;;;8.00;76.70;;;;;;5052252;28;20056;-81
2021/05/08 05:24:37;;;;;;;5.13;3.00;;;8.80;75.50;;;;;;5052314;28;20033;-80
2021/05/08 05:27:04;;;;;;;3.47;3.08;;;9.70;71.50;;;;;;5061336;28;20028;-83
2021/05/08 05:29:30;;;;;;;3.67;3.38;;;9.90;70.40;;;;;;5067597;28;20377;-83
2021/05/08 05:31:56;;;;;;;4.57;4.10;;;10.10;69.80;;;;;;5057128;28;20037;-79
2021/05/08 05:34:23;;;;;;;4.50;4.03;;;10.90;66.50;;;;;;5052284;28;20044;-82
2021/05/08 05:36:49;;;;;;;4.10;3.70;;;11.20;65.40;;;;;;5070219;28;20055;-82
2021/05/08 05:39:15;;;;;;;3.85;3.20;;;11.50;63.30;;;;;;5054920;28;20033;-81
2021/05/08 05:41:41;;;;;;;3.33;3.03;;;11.80;63.90;;;;;;5052061;28;20033;-80
2021/05/08 05:44:07;;;;;;;3.97;3.22;;;12.80;60.30;;;;;;5065747;28;20025;-81
2021/05/08 05:46:34;;;;;;;3.58;2.70;;;13.00;58.90;;;;;;5073296;28;20025;-83
2021/05/08 05:49:00;;;;;;;4.68;3.33;;;13.50;56.30;;;;;;5060121;28;20040;-80
2021/05/08 05:51:28;;;;;;;3.70;2.63;;;13.90;56.00;;;;;;5050869;28;20045;-80
2021/05/08 05:53:57;;;;;;;4.72;2.85;;;13.90;56.40;;;;;;5049774;28;20045;-80
2021/05/08 05:56:27;;;;;;;3.90;2.60;;;13.60;55.50;;;;;;5053431;28;20470;-80
2021/05/08 05:58:54;;;;;;;3.60;2.58;;;13.00;54.80;;;;;;5078491;28;20473;-80
2021/05/08 06:01:20;;;;;;;3.67;2.80;;;13.10;53.60;;;;;;5074255;28;20036;-79
2021/05/08 06:03:47;;;;;;;4.13;3.30;;;14.20;54.20;;;;;;5060794;28;20048;-80
2021/05/08 06:06:13;;;;;;;3.00;2.63;;;14.30;50.90;;;;;;5074292;28;20040;-79
2021/05/08 06:08:40;;;;;;;3.78;2.60;;;15.30;50.50;;;;;;5076773;28;20036;-81
2021/05/08 06:11:06;;;;;;;7.70;5.10;;;14.50;51.20;;;;;;5057252;28;20040;-81
2021/05/08 06:13:32;;;;;;;243.15;149.52;;;14.30;50.90;;;;;;5064783;28;20045;-80
2021/05/08 06:16:00;;;;;;;8.15;6.10;;;14.60;50.70;;;;;;5059059;28;20024;-80
2021/05/08 06:18:26;;;;;;;74.70;45.22;;;15.00;49.80;;;;;;5067408;28;20033;-80
2021/05/08 06:20:53;;;;;;;131.60;72.57;;;15.60;49.20;;;;;;5065123;28;20095;-76
2021/05/08 06:23:19;;;;;;;96.65;49.80;;;16.30;47.60;;;;;;5055521;28;20037;-79
2021/05/08 06:25:46;;;;;;;62.28;36.72;;;16.10;47.80;;;;;;5055198;28;20025;-79
2021/05/08 06:28:12;;;;;;;17.85;12.77;;;16.60;47.50;;;;;;5055077;28;20037;-77
2021/05/08 06:30:40;;;;;;;43.90;26.10;;;14.90;47.60;;;;;;5055458;28;20041;-79
2021/05/08 06:33:06;;;;;;;7.90;4.80;;;14.70;48.20;;;;;;5054423;28;20417;-78
2021/05/08 06:35:32;;;;;;;55.38;35.38;;;15.00;48.40;;;;;;5064991;28;20032;-79
2021/05/08 06:37:59;;;;;;;59.70;41.30;;;15.10;48.10;;;;;;5065355;28;20381;-79
2021/05/08 06:40:26;;;;;;;3.88;3.10;;;15.20;48.00;;;;;;5054864;28;20033;-79
2021/05/08 06:42:52;;;;;;;61.70;41.80;;;14.40;48.30;;;;;;5054793;28;20390;-79
2021/05/08 06:45:19;;;;;;;5.57;4.55;;;15.10;48.80;;;;;;5055822;28;20033;-79
2021/05/08 06:47:47;;;;;;;19.60;15.00;;;16.00;47.10;;;;;;5062212;28;20025;-78
2021/05/08 06:50:13;;;;;;;22.58;17.63;;;15.80;47.40;;;;;;5054183;28;20037;-80
2021/05/08 06:52:40;;;;;;;5.63;4.30;;;15.70;48.10;;;;;;5064561;28;20497;-79
2021/05/08 06:55:06;;;;;;;17.27;12.93;;;15.40;47.70;;;;;;5057115;28;20033;-79
2021/05/08 06:57:33;;;;;;;64.55;41.38;;;15.20;47.60;;;;;;5061997;28;20029;-78
2021/05/08 07:00:00;;;;;;;24.05;15.55;;;14.00;48.60;;;;;;5060456;28;20041;-79
2021/05/08 07:02:27;;;;;;;8.85;6.03;;;14.30;48.80;;;;;;5054932;28;20052;-80
2021/05/08 07:04:53;;;;;;;5.75;4.85;;;15.40;47.80;;;;;;5054136;28;20039;-79
2021/05/08 07:07:20;;;;;;;4.28;3.60;;;16.40;46.60;;;;;;5054642;28;20506;-78
2021/05/08 07:09:46;;;;;;;79.10;52.05;;;16.60;46.20;;;;;;5053310;28;20044;-77
2021/05/08 07:12:13;;;;;;;18.02;11.25;;;17.00;43.90;;;;;;5054491;28;20044;-78
2021/05/08 07:14:41;;;;;;;182.75;109.28;;;16.30;44.70;;;;;;5059001;28;20032;-79
2021/05/08 07:17:07;;;;;;;29.55;19.20;;;15.50;46.60;;;;;;5071982;28;20044;-78
2021/05/08 07:19:33;;;;;;;209.77;142.27;;;14.90;48.70;;;;;;5074297;28;20036;-78
2021/05/08 07:22:01;;;;;;;35.40;23.23;;;15.00;47.40;;;;;;5074418;28;20024;-78
2021/05/08 07:24:28;;;;;;;4.13;3.65;;;15.70;47.00;;;;;;5057333;28;20055;-79
2021/05/08 07:26:57;;;;;;;71.75;53.60;;;15.90;46.90;;;;;;5069524;28;20048;-78
2021/05/08 07:29:24;;;;;;;7.47;5.28;;;15.50;46.00;;;;;;5069640;28;20037;-78
2021/05/08 07:31:51;;;;;;;13.77;9.88;;;16.10;46.10;;;;;;5054624;28;20037;-78
2021/05/08 07:34:17;;;;;;;60.15;41.72;;;16.70;45.40;;;;;;5056103;28;20478;-77
2021/05/08 07:36:43;;;;;;;10.25;6.95;;;16.10;44.70;;;;;;5054080;28;20032;-77
2021/05/08 07:39:09;;;;;;;5.43;3.28;;;15.60;46.40;;;;;;5061052;28;20378;-78
2021/05/08 07:41:36;;;;;;;5.22;3.17;;;15.60;46.00;;;;;;5058261;28;20049;-78
2021/05/08 07:44:02;;;;;;;4.57;2.92;;;15.80;45.80;;;;;;5053638;28;20053;-78
2021/05/08 07:46:30;;;;;;;4.22;2.95;;;15.60;45.60;;;;;;5054199;28;20029;-79
2021/05/08 07:48:57;;;;;;;4.80;3.08;;;16.10;45.50;;;;;;5053382;28;20036;-78
2021/05/08 07:51:23;;;;;;;4.65;3.40;;;17.00;44.20;;;;;;5061479;28;20052;-78
2021/05/08 07:53:49;;;;;;;3.17;2.55;;;17.10;43.80;;;;;;5060040;28;20036;-77
2021/05/08 07:56:15;;;;;;;4.63;3.55;;;16.90;44.00;;;;;;5058574;28;20359;-78
2021/05/08 07:58:42;;;;;;;4.55;2.83;;;17.40;44.80;;;;;;5069483;28;20052;-79
2021/05/08 08:01:08;;;;;;;4.45;3.05;;;17.60;45.00;;;;;;5063678;28;20033;-79
2021/05/08 08:03:34;;;;;;;3.90;3.28;;;18.40;43.50;;;;;;5063903;28;20458;-79
2021/05/08 08:06:00;;;;;;;4.05;2.78;;;19.70;42.70;;;;;;5071762;28;20041;-79
2021/05/08 08:08:30;;;;;;;3.92;2.75;;;18.60;43.20;;;;;;5061922;28;20041;-79
2021/05/08 08:10:57;;;;;;;4.45;3.20;;;16.40;45.60;;;;;;5052981;28;20037;-80
2021/05/08 08:13:24;;;;;;;6.20;4.00;;;17.00;45.30;;;;;;5068434;28;20044;-79
2021/05/08 08:15:53;;;;;;;4.47;3.53;;;17.00;45.40;;;;;;5060020;28;20028;-79
2021/05/08 08:18:20;;;;;;;5.03;3.10;;;16.90;44.60;;;;;;5064217;28;20033;-79
2021/05/08 08:20:46;;;;;;;5.45;3.00;;;16.30;45.40;;;;;;5055971;28;20035;-78
2021/05/08 08:23:13;;;;;;;4.32;2.80;;;16.00;46.40;;;;;;5067797;28;20041;-79
2021/05/08 08:25:40;;;;;;;6.18;2.65;;;16.10;46.40;;;;;;5053361;28;20028;-80
2021/05/08 08:28:06;;;;;;;4.53;2.55;;;15.60;45.90;;;;;;5052400;28;20033;-83
2021/05/08 08:30:33;;;;;;;4.70;3.03;;;15.40;46.50;;;;;;5052048;28;20033;-79
2021/05/08 08:32:59;;;;;;;5.43;3.08;;;15.50;47.00;;;;;;5052497;28;20049;-79
2021/05/08 08:35:25;;;;;;;5.82;2.50;;;15.20;46.60;;;;;;5053345;28;20049;-79
2021/05/08 08:37:52;;;;;;;4.07;2.20;;;14.60;47.80;;;;;;5070814;28;20032;-78
2021/05/08 08:40:20;;;;;;;6.35;2.92;;;14.70;48.00;;;;;;5069363;28;20047;-78
2021/05/08 08:42:47;;;;;;;7.22;3.17;;;14.90;48.50;;;;;;5071830;28;20051;-78
2021/05/08 08:45:14;;;;;;;3.92;2.45;;;14.80;48.20;;;;;;5057178;28;20045;-78
2021/05/08 08:47:41;;;;;;;5.40;3.05;;;14.50;48.60;;;;;;5052995;28;20029;-78
2021/05/08 08:50:10;;;;;;;4.43;2.58;;;14.30;48.40;;;;;;5052280;28;20367;-78
2021/05/08 08:52:38;;;;;;;7.38;2.28;;;14.10;48.70;;;;;;5052807;28;20064;-79
2021/05/08 08:55:07;;;;;;;9.77;3.58;;;14.40;48.10;;;;;;5052122;28;20553;-81
2021/05/08 08:57:37;;;;;;;5.50;3.00;;;14.70;48.20;;;;;;5070513;28;20058;-81
2021/05/08 09:00:14;;;;;;;4.20;2.63;;;14.40;46.90;;;;;;5056904;28;20039;-82
2021/05/08 09:02:42;;;;;;;4.72;2.72;;;14.20;48.80;;;;;;5071476;28;20044;-79
2021/05/08 09:05:10;;;;;;;6.75;2.63;;;14.00;49.20;;;;;;5060377;28;20045;-80
2021/05/08 09:07:40;;;;;;;4.25;2.55;;;14.50;48.80;;;;;;5067073;28;20048;-81
2021/05/08 09:10:07;;;;;;;3.78;2.70;;;15.00;47.50;;;;;;5059790;28;20043;-83
2021/05/08 09:12:55;;;;;;;4.57;2.60;;;15.10;46.70;;;;;;5056593;28;20044;-81
2021/05/08 09:15:40;;;;;;;6.10;2.92;;;14.80;47.10;;;;;;5051837;28;20402;-81
2021/05/08 09:18:09;;;;;;;5.18;2.55;;;14.80;47.90;;;;;;5074045;28;20033;-79
2021/05/08 09:20:47;;;;;;;5.88;2.30;;;15.00;46.50;;;;;;5068504;28;20031;-80
2021/05/08 09:23:34;;;;;;;4.30;2.70;;;15.20;47.60;;;;;;5060695;28;20037;-80
2021/05/08 09:26:04;;;;;;;4.38;2.38;;;15.50;46.50;;;;;;5052199;28;20025;-82
2021/05/08 09:28:32;;;;;;;5.00;2.55;;;15.40;46.30;;;;;;5052407;28;20482;-81
2021/05/08 09:30:59;;;;;;;4.00;2.33;;;15.60;46.70;;;;;;5052065;28;20025;-82
2021/05/08 09:33:27;;;;;;;4.18;2.40;;;15.40;45.90;;;;;;5055482;28;20052;-82
2021/05/08 09:36:01;;;;;;;4.38;2.50;;;15.70;46.10;;;;;;5065242;28;20033;-82
2021/05/08 09:38:41;;;;;;;4.35;1.85;;;16.20;45.50;;;;;;5054850;28;20032;-81
2021/05/08 09:41:13;;;;;;;6.53;2.42;;;16.40;45.50;;;;;;5050349;28;20047;-80
2021/05/08 09:43:40;;;;;;;6.75;2.25;;;16.70;45.20;;;;;;5050208;28;20063;-78
2021/05/08 09:46:08;;;;;;;4.78;2.25;;;16.30;46.30;;;;;;5051676;28;20033;-79
2021/05/08 09:48:38;;;;;;;3.78;1.92;;;17.30;45.70;;;;;;5052065;28;20036;-81
2021/05/08 09:51:24;;;;;;;;;;;17.90;44.20;;;;;;5052456;28;20025;-80
2021/05/08 09:54:10;;;;;;;3.22;1.80;;;17.80;43.20;;;;;;5057032;28;19916;-81
2021/05/08 09:56:43;;;;;;;2.97;1.98;;;18.20;42.60;;;;;;5063883;28;20060;-80
2021/05/08 09:59:33;;;;;;;5.50;1.58;;;18.20;43.70;;;;;;5051788;28;20078;-78
2021/05/08 10:02:05;;;;;;;7.57;2.83;;;18.40;43.30;;;;;;5050529;28;20036;-82
2021/05/08 10:04:33;;;;;;;4.32;2.10;;;17.20;43.80;;;;;;5051595;28;20044;-82
2021/05/08 10:07:22;;;;;;;3.17;1.98;;;16.70;45.10;;;;;;5051898;28;20044;-80
2021/05/08 10:09:50;;;;;;;3.72;1.70;;;17.10;45.40;;;;;;5051440;28;20371;-78
2021/05/08 10:12:21;;;;;;;4.88;1.58;;;17.40;44.10;;;;;;5051352;28;20461;-79
2021/05/08 10:14:49;;;;;;;5.40;1.98;;;18.00;44.20;;;;;;5050900;28;20029;-79
2021/05/08 10:17:24;;;;;;;3.05;1.52;;;18.00;43.10;;;;;;5051882;28;20040;-80
2021/05/08 10:19:52;;;;;;;3.80;1.65;;;18.00;43.00;;;;;;5055597;28;20465;-79
2021/05/08 10:22:19;;;;;;;4.35;1.95;;;17.80;42.40;;;;;;5064498;28;20029;-80
2021/05/08 10:24:46;;;;;;;5.53;2.13;;;17.80;43.40;;;;;;5052068;28;20032;-81
2021/05/08 10:27:14;;;;;;;2.45;1.80;;;17.40;42.30;;;;;;5051908;28;20048;-86
2021/05/08 10:29:42;;;;;;;2.45;1.80;;;16.80;44.00;;;;;;5061427;28;20378;-81
2021/05/08 10:32:14;;;;;;;2.63;1.33;;;17.00;43.90;;;;;;5062370;28;20049;-81
2021/05/08 10:34:59;;;;;;;4.00;1.90;;;16.10;43.40;;;;;;5052000;28;20037;-83
2021/05/08 10:37:26;;;;;;;5.53;1.77;;;16.70;45.00;;;;;;5071050;28;20028;-82
2021/05/08 10:39:56;;;;;;;4.05;1.80;;;16.40;43.90;;;;;;5066412;28;20021;-82
2021/05/08 10:42:46;;;;;;;3.15;1.52;;;16.40;45.80;;;;;;5051920;28;20040;-82
2021/05/08 10:45:12;;;;;;;5.30;1.83;;;16.70;44.60;;;;;;5053466;28;20040;-81
2021/05/08 10:48:02;;;;;;;2.20;1.30;;;17.40;44.70;;;;;;5055783;28;20025;-82
2021/05/08 10:50:36;;;;;;;3.60;1.40;;;18.20;42.20;;;;;;5067744;28;20028;-82
2021/05/08 10:53:02;;;;;;;2.38;1.38;;;18.20;42.00;;;;;;5054668;28;20055;-79
2021/05/08 10:55:40;;;;;;;2.78;1.20;;;18.20;42.80;;;;;;5074137;28;20381;-81
2021/05/08 10:58:20;;;;;;;3.95;1.20;;;18.10;41.40;;;;;;5053677;28;20044;-80
2021/05/08 11:00:51;;;;;;;3.33;1.20;;;17.70;42.80;;;;;;5063579;28;20048;-80
2021/05/08 11:03:25;;;;;;;2.90;1.35;;;17.40;43.00;;;;;;5055057;28;20045;-82
2021/05/08 11:05:56;;;;;;;3.78;1.25;;;17.60;42.00;;;;;;5054817;28;20056;-82
2021/05/08 11:08:25;;;;;;;2.72;1.23;;;17.70;40.80;;;;;;5054883;28;20064;-81
2021/05/08 11:11:06;;;;;;;3.10;1.10;;;17.70;42.10;;;;;;5059761;28;20032;-81
2021/05/08 11:13:41;;;;;;;3.33;1.48;;;17.80;41.00;;;;;;5060750;28;20040;-81
2021/05/08 11:16:08;;;;;;;1.75;1.05;;;17.80;42.20;;;;;;5054282;28;20037;-83
2021/05/08 11:18:43;;;;;;;2.60;0.75;;;17.60;41.10;;;;;;5071680;28;20040;-81
2021/05/08 11:21:18;;;;;;;4.10;1.17;;;18.20;39.80;;;;;;5071638;28;20045;-80
2021/05/08 11:23:50;;;;;;;1.88;1.02;;;18.20;41.40;;;;;;5072430;28;20058;-81
2021/05/08 11:26:25;;;;;;;2.80;1.00;;;17.90;40.50;;;;;;5055580;28;20025;-80
2021/05/08 11:29:05;;;;;;;2.67;0.85;;;18.00;40.70;;;;;;5073195;28;20036;-82
2021/05/08 11:31:47;;;;;;;2.90;0.80;;;17.90;40.20;;;;;;5054449;28;20387;-81
2021/05/08 11:34:26;;;;;;;1.70;0.98;;;18.00;40.60;;;;;;5053863;28;20501;-81
2021/05/08 11:37:01;;;;;;;3.90;0.90;;;18.40;39.70;;;;;;5059552;28;20040;-82
2021/05/08 11:39:32;;;;;;;2.42;0.98;;;18.50;39.80;;;;;;5067094;28;20044;-81
2021/05/08 11:42:04;;;;;;;3.38;1.30;;;18.70;39.20;;;;;;5055649;28;20052;-83
2021/05/08 11:44:33;;;;;;;3.85;1.05;;;18.40;39.70;;;;;;5071765;28;20053;-80
2021/05/08 11:47:04;;;;;;;1.67;0.80;;;18.10;40.30;;;;;;5061341;28;20036;-81
2021/05/08 11:49:32;;;;;;;1.83;1.00;;;18.30;39.90;;;;;;5062412;28;20044;-81
2021/05/08 11:52:01;;;;;;;2.85;1.40;;;18.30;40.80;;;;;;5056186;28;20033;-81
2021/05/08 11:54:29;;;;;;;3.13;1.30;;;18.10;40.00;;;;;;5053939;28;20176;-82
2021/05/08 11:56:55;;;;;;;2.17;1.00;;;17.90;40.40;;;;;;5053044;28;20033;-80
2021/05/08 11:59:32;;;;;;;2.67;0.90;;;17.70;41.30;;;;;;5063107;28;20033;-82
2021/05/08 12:02:18;;;;;;;2.33;1.17;;;17.90;40.20;;;;;;5062147;28;20040;-80
2021/05/08 12:04:46;;;;;;;3.35;1.35;;;18.00;40.20;;;;;;5061461;28;20036;-79
2021/05/08 12:07:12;;;;;;;3.50;1.15;;;18.00;39.70;;;;;;5053102;28;20033;-79
2021/05/08 12:09:39;;;;;;;2.70;0.88;;;18.00;40.30;;;;;;5053623;28;20040;-78
2021/05/08 12:12:05;;;;;;;2.03;1.00;;;17.90;40.50;;;;;;5062052;28;20361;-79
2021/05/08 12:14:39;;;;;;;2.35;1.20;;;17.90;40.00;;;;;;5064811;28;20478;-79
2021/05/08 12:17:07;;;;;;;2.50;0.88;;;17.70;40.50;;;;;;5053593;28;20029;-79
2021/05/08 12:19:34;;;;;;;1.77;0.75;;;17.60;41.20;;;;;;5061182;28;20040;-79
2021/05/08 12:22:00;;;;;;;2.45;1.00;;;17.50;40.90;;;;;;5059348;28;20385;-79
2021/05/08 12:24:27;;;;;;;2.70;1.20;;;17.60;41.70;;;;;;5053359;28;20048;-79
2021/05/08 12:26:54;;;;;;;2.00;0.82;;;17.80;41.60;;;;;;5056155;28;20031;-80
2021/05/08 12:29:20;;;;;;;2.55;0.90;;;17.80;40.50;;;;;;5063654;28;20041;-80
2021/05/08 12:31:47;;;;;;;2.60;0.80;;;17.50;40.60;;;;;;5055688;28;20037;-80
2021/05/08 12:34:16;;;;;;;2.47;1.10;;;17.80;40.90;;;;;;5056046;28;20057;-80
2021/05/08 12:37:02;;;;;;;1.67;0.90;;;18.00;41.40;;;;;;5066921;28;20025;-81
2021/05/08 12:39:29;;;;;;;3.00;0.90;;;18.10;40.40;;;;;;5053347;28;20516;-81
2021/05/08 12:41:59;;;;;;;1.60;0.85;;;18.00;41.00;;;;;;5052894;28;20025;-82
2021/05/08 12:44:40;;;;;;;1.80;0.63;;;17.30;41.10;;;;;;5052988;28;20049;-81
2021/05/08 12:47:20;;;;;;;2.65;0.75;;;17.40;41.10;;;;;;5052442;28;20029;-79
2021/05/08 12:50:13;;;;;;;2.33;0.90;;;17.50;40.70;;;;;;5053005;28;20044;-79
2021/05/08 12:52:44;;;;;;;1.42;0.70;;;17.50;41.90;;;;;;5054888;28;20040;-79
2021/05/08 12:55:28;;;;;;;1.75;0.82;;;17.70;42.00;;;;;;5053828;28;20397;-80
2021/05/08 12:58:04;;;;;;;2.38;0.80;;;17.70;41.60;;;;;;5053417;28;20061;-82